Belem Val De Caes, Brazil

5:25 AM BRT on August 30, 2014 (GMT -0300)
Val De Caes | Change Station
CLOSE
Current Station
Airport
Location: Belem Val de Caes,
Elevation: 52 ft
Nearby Weather Stations

Elev 52 ft 1.38 °S, 48.48 °W | Updated 25 minutes ago

Clear
Clear
75 °F
Feels Like 75 °F
N
5
Wind Variable Wind from ENE

Today
High -- | Low -- °F
--% Chance of Precip.
Yesterday
High -- | Low -- °F
Precip. -- in
6:12 AM 6:16 PM
Waxing Crescent, 20% visible
Pressure 29.92 in
Visibility -9999.0 miles
Clouds
Dew Point 75 °F
Humidity 100%
Rainfall 0.00 in
Snow Depth Not available.
UV Not available.
Pollen Not available.
Air Quality Not available.
Flu Activity Not available.
METAR SBBE 300800Z 06004KT CAVOK 24/24 Q1013

More Conditions Fewer Conditions

Pressure 29.92 in
Visibility -9999.0 miles
Clouds
Dew Point 75 °F
Humidity 100%
Rainfall 0.00 in
Snow Depth Not available.
UV Not available.
Pollen Not available.
Air Quality Not available.
Flu Activity Not available.
METAR SBBE 300800Z 06004KT CAVOK 24/24 Q1013

More Conditions Fewer Conditions

10-Day Weather Forecast

Almanac

Astronomy

Aug. 30, 2014 Rise Set
Actual Time 6:12 AM BRT 6:16 PM BRT
Civil Twilight 5:51 AM BRT 6:37 PM BRT
Nautical Twilight 5:26 AM BRT 7:02 PM BRT
Astronomical Twilight 5:02 AM BRT 7:26 PM BRT
Moon 9:39 AM BRT 10:04 PM BRT
Length of Visible Light 12h 46m
Length of Day
12h 04m
Tomorrow will be 0m 4s longer.
Waxing Crescent, 20% of the Moon is Illuminated
Today
Waxing Crescent
Sep 2
First Quarter
Sep 8
Full
Sep 15
Last Quarter
Sep 24
New

Yesterday's Extremes

Country Highs Country Lows

Community

WunderPhotos

Upload Photos

1,748,472 photos uploaded!

Nearby

Snow Depth

Not available.

Earthquake Activity

City Distance Mag. Time & Date
No recent earthquake activity has been reported nearby.
Minimum magnitude displayed is 2.5.

Coastal Water Temperatures

Place Temperature
No Stations Reporting

Nearby Weather Stations